createdAt,value
2024-04-04T00:02:00.824Z,100493.54
2024-04-04T00:07:23.739Z,100492.75
2024-04-04T00:12:43.366Z,100486.02
2024-04-04T00:17:47.976Z,100481.79
2024-04-04T00:22:50.994Z,100471.17
2024-04-04T03:03:06.053Z,100422.75
2024-04-04T03:08:09.638Z,100421.04
2024-04-04T03:13:12.685Z,100420.52
2024-04-04T03:18:20.872Z,100419.17
2024-04-04T03:23:23.661Z,100419.27
2024-04-04T03:28:26.481Z,100422.08
2024-04-04T03:33:29.357Z,100417.98
2024-04-04T03:38:32.448Z,100419.27
2024-04-04T03:43:35.196Z,100424.95
2024-04-04T03:48:38.123Z,100423.61
2024-04-04T03:53:41.202Z,100423.89
2024-04-04T03:58:44.429Z,100423.19
2024-04-04T04:03:47.655Z,100420.30
2024-04-04T04:08:50.719Z,100416.58
2024-04-04T04:13:53.906Z,100417.90
2024-04-04T04:19:16.856Z,100414.61
2024-04-04T04:24:39.925Z,100418.02
2024-04-04T04:30:03.304Z,100414.95
2024-04-04T04:35:26.521Z,100412.60
2024-04-04T04:40:49.378Z,100412.08
2024-04-04T04:45:52.252Z,100406.70
2024-04-04T04:51:15.153Z,100405.96
2024-04-04T04:56:17.884Z,100403.41
2024-04-04T05:01:20.622Z,100405.05
2024-04-04T05:06:24.683Z,100407.92
2024-04-04T05:11:27.700Z,100407.63
2024-04-04T05:16:30.603Z,100410.85
2024-04-04T05:21:33.578Z,100410.38
2024-04-04T05:26:36.653Z,100410.25
2024-04-04T05:31:39.924Z,100402.23
2024-04-04T05:36:43.036Z,100400.45
2024-04-04T05:41:46.035Z,100404.84
2024-04-04T05:46:48.955Z,100400.16
2024-04-04T05:51:51.971Z,100394.86
2024-04-04T05:56:54.957Z,100393.49
2024-04-04T06:01:58.076Z,100388.97
2024-04-04T06:07:20.865Z,100383.05
2024-04-04T06:12:44.430Z,100390.60
2024-04-04T06:18:07.278Z,100385.77
2024-04-04T06:23:30.001Z,100383.42
2024-04-04T06:28:32.563Z,100379.42
2024-04-04T06:33:35.290Z,100376.33
2024-04-04T06:38:38.341Z,100376.36
2024-04-04T06:44:01.165Z,100362.77
2024-04-04T06:49:05.681Z,100367.24
2024-04-04T06:54:08.586Z,100370.48
2024-04-04T06:59:11.430Z,100366.77
2024-04-04T07:04:14.426Z,100358.23
2024-04-04T07:09:17.607Z,100358.10
2024-04-04T07:14:20.328Z,100352.57
2024-04-04T07:19:23.150Z,100359.08
2024-04-04T07:24:25.847Z,100354.51
2024-04-04T07:29:28.597Z,100356.12
2024-04-04T07:34:32.145Z,100363.05
2024-04-04T07:39:35.122Z,100357.16
2024-04-04T07:44:58.007Z,100358.20
2024-04-04T07:50:07.572Z,100346.80
2024-04-04T07:55:10.601Z,100342.13
2024-04-04T08:00:14.871Z,100340.83
2024-04-04T08:05:37.728Z,100342.55
2024-04-04T08:11:00.330Z,100339.45
2024-04-04T08:16:23.004Z,100338.11
2024-04-04T08:21:25.736Z,100332.20
2024-04-04T08:26:29.150Z,100328.02
2024-04-04T08:31:32.042Z,100315.88
2024-04-04T08:36:35.290Z,100323.66
2024-04-04T08:41:41.105Z,100318.61
2024-04-04T08:46:45.807Z,100316.79
2024-04-04T08:51:49.335Z,100312.47
2024-04-04T08:56:52.842Z,100311.39
2024-04-04T09:01:55.721Z,100312.14
2024-04-04T09:06:58.597Z,100305.43
2024-04-04T09:12:11.640Z,100302.31
2024-04-04T09:17:20.691Z,100297.43
2024-04-04T09:22:26.567Z,100295.96
2024-04-04T09:27:49.648Z,100294.89
2024-04-04T09:33:13.412Z,100288.36
2024-04-04T09:38:37.312Z,100283.36
2024-04-04T09:44:00.096Z,100283.45
2024-04-04T09:49:22.810Z,100281.98
2024-04-04T09:54:26.346Z,100290.83
2024-04-04T09:59:31.187Z,100289.73
2024-04-04T10:04:38.699Z,100290.67
2024-04-04T10:09:42.732Z,100283.91
2024-04-04T10:15:12.357Z,100276.12
2024-04-04T10:20:17.385Z,100272.54
2024-04-04T10:25:26.507Z,100266.44
2024-04-04T10:30:29.567Z,100264.04
2024-04-04T10:35:32.529Z,100261.40
2024-04-04T10:40:35.662Z,100262.62
2024-04-04T10:45:39.115Z,100258.50
2024-04-04T10:50:42.113Z,100252.33
2024-04-04T10:55:45.832Z,100251.60
2024-04-04T11:00:54.185Z,100240.27
2024-04-04T11:05:58.498Z,100238.30
2024-04-04T11:11:01.444Z,100234.15
2024-04-04T11:16:04.768Z,100238.37
2024-04-04T11:21:29.365Z,100233.16
2024-04-04T11:26:52.696Z,100229.79
2024-04-04T11:31:56.060Z,100229.13
2024-04-04T11:36:58.966Z,100228.15
2024-04-04T11:42:02.293Z,100217.27
2024-04-04T11:47:05.418Z,100216.31
2024-04-04T11:52:28.664Z,100216.64
2024-04-04T11:57:51.759Z,100214.85
2024-04-04T12:03:15.144Z,100209.54
2024-04-04T12:08:28.227Z,100208.45
2024-04-04T12:13:32.457Z,100203.02
2024-04-04T12:18:54.827Z,100199.89
2024-04-04T12:24:21.273Z,100194.48
2024-04-04T12:29:44.006Z,100184.61
2024-04-04T12:35:06.805Z,100185.35
2024-04-04T12:40:29.965Z,100185.19
2024-04-04T12:45:52.852Z,100181.16
2024-04-04T12:50:55.618Z,100183.80
2024-04-04T12:55:58.574Z,100189.83
2024-04-04T13:01:21.380Z,100187.55
2024-04-04T13:06:24.855Z,100178.27
2024-04-04T13:11:48.433Z,100174.03
2024-04-04T13:16:53.066Z,100165.17
2024-04-04T13:22:16.066Z,100154.52
2024-04-04T13:27:38.994Z,100148.19
2024-04-04T13:33:01.696Z,100142.40
2024-04-04T13:38:24.806Z,100139.94
2024-04-04T13:43:47.748Z,100131.84
2024-04-04T13:49:15.448Z,100125.54
2024-04-04T13:54:38.258Z,100110.08
2024-04-04T13:59:41.136Z,100097.33
2024-04-04T14:04:44.619Z,100091.30
2024-04-04T14:10:08.025Z,100081.56
2024-04-04T14:15:30.765Z,100072.00
2024-04-04T14:20:53.902Z,100068.83
2024-04-04T14:25:56.712Z,100067.38
2024-04-04T14:31:00.537Z,100067.40
2024-04-04T14:36:26.832Z,100069.36
2024-04-04T14:41:49.795Z,100064.61
2024-04-04T14:47:12.779Z,100069.88
2024-04-04T14:52:15.886Z,100063.34
2024-04-04T14:57:45.612Z,100059.25
2024-04-04T15:03:08.517Z,100053.70
2024-04-04T15:08:31.537Z,100044.66
2024-04-04T15:13:54.393Z,100036.55
2024-04-04T15:19:17.337Z,100038.73
2024-04-04T15:24:40.308Z,100036.52
2024-04-04T15:30:03.272Z,100042.83
2024-04-04T15:35:26.239Z,100038.76
2024-04-04T15:40:49.266Z,100042.07
2024-04-04T15:46:12.175Z,100037.55
2024-04-04T15:51:39.806Z,100030.63
2024-04-04T15:57:03.038Z,100034.15
2024-04-04T16:02:26.181Z,100032.62
2024-04-04T16:07:30.540Z,100018.59
2024-04-04T16:12:33.390Z,100010.48
2024-04-04T16:17:36.222Z,100000.61
2024-04-04T16:22:39.689Z,100004.70
2024-04-04T16:27:42.560Z,99999.76
2024-04-04T16:32:45.546Z,100000.11
2024-04-04T16:37:48.654Z,99999.70
2024-04-04T16:42:53.892Z,99997.27
2024-04-04T16:47:57.225Z,99995.64
2024-04-04T16:53:02.962Z,99995.41
2024-04-04T16:58:06.028Z,99988.91
2024-04-04T17:03:08.770Z,99983.84
2024-04-04T17:08:11.759Z,99978.23
2024-04-04T17:13:14.689Z,99976.16
2024-04-04T17:18:18.429Z,99972.77
2024-04-04T17:23:21.336Z,99976.21
2024-04-04T17:28:24.145Z,99976.08
2024-04-04T17:33:27.083Z,99967.16
2024-04-04T17:38:29.967Z,99962.58
2024-04-04T17:43:35.106Z,99961.30
2024-04-04T17:48:37.938Z,99955.23
2024-04-04T17:53:46.333Z,99959.84
2024-04-04T17:58:49.323Z,99962.77
2024-04-04T18:03:52.203Z,99971.20
2024-04-04T18:08:56.499Z,99972.69
2024-04-04T18:13:59.347Z,99973.77
2024-04-04T18:19:02.399Z,99963.81
2024-04-04T18:24:05.588Z,99958.09
2024-04-04T18:29:08.410Z,99953.45
2024-04-04T18:34:11.830Z,99941.41
2024-04-04T18:39:14.533Z,99927.95
2024-04-04T18:44:17.944Z,99922.98
2024-04-04T18:49:21.572Z,99919.70
2024-04-04T18:54:24.962Z,99917.64
2024-04-04T18:59:28.077Z,99908.77
2024-04-04T19:04:32.302Z,99899.52
2024-04-04T19:09:35.422Z,99890.64
2024-04-04T19:14:58.762Z,99892.86
2024-04-04T19:20:05.788Z,99883.67
2024-04-04T19:25:08.474Z,99880.27
2024-04-04T19:30:11.591Z,99869.69
2024-04-04T19:35:14.355Z,99863.00
2024-04-04T19:40:17.246Z,99861.45
2024-04-04T19:45:20.324Z,99854.49
2024-04-04T19:50:23.084Z,99846.70
2024-04-04T19:55:26.193Z,99839.39
2024-04-04T20:00:28.924Z,99837.94
2024-04-04T20:05:35.622Z,99827.80
2024-04-04T20:10:58.314Z,99821.90
2024-04-04T20:16:02.076Z,99804.80
2024-04-04T20:21:05.232Z,99803.54
2024-04-04T20:26:07.988Z,99793.73
2024-04-04T20:31:10.768Z,99789.33
2024-04-04T20:36:13.545Z,99783.80
2024-04-04T20:41:16.402Z,99778.62
2024-04-04T20:46:39.117Z,99769.19
2024-04-04T20:52:01.885Z,99764.88
2024-04-04T20:57:25.118Z,99761.18
2024-04-04T21:02:50.512Z,99758.67
2024-04-04T21:08:13.410Z,99755.84
2024-04-04T21:13:16.327Z,99756.36
2024-04-04T21:18:19.217Z,99750.34
2024-04-04T21:23:22.135Z,99746.70
2024-04-04T21:28:24.852Z,99737.16
2024-04-04T21:33:27.822Z,99737.31
2024-04-04T21:38:31.690Z,99737.41
2024-04-04T21:43:34.586Z,99739.03
2024-04-04T21:48:37.277Z,99736.17
2024-04-04T21:53:40.242Z,99734.43
2024-04-04T21:58:43.667Z,99726.81
2024-04-04T22:03:46.555Z,99722.80
2024-04-04T22:08:49.220Z,99718.02
2024-04-04T22:14:11.976Z,99712.33
2024-04-04T22:19:34.871Z,99716.39
2024-04-04T22:24:57.576Z,99712.32
2024-04-04T22:30:20.139Z,99710.18
2024-04-04T22:35:42.958Z,99719.81
2024-04-04T22:41:06.310Z,99718.15
2024-04-04T22:46:24.953Z,99717.39
2024-04-04T22:51:27.740Z,99721.55
2024-04-04T22:56:30.674Z,99720.40
2024-04-04T23:01:33.417Z,99720.09
2024-04-04T23:06:36.162Z,99721.96
2024-04-04T23:11:38.804Z,99725.38
2024-04-04T23:16:41.652Z,99729.96
2024-04-04T23:21:44.557Z,99736.25
2024-04-04T23:26:47.272Z,99734.48
2024-04-04T23:31:50.003Z,99735.84
2024-04-04T23:36:53.205Z,99732.67
2024-04-04T23:41:56.473Z,99733.68
2024-04-04T23:46:59.389Z,99734.40
2024-04-04T23:52:02.789Z,99737.20
2024-04-04T23:57:05.886Z,99735.34
